Terminal Aerodrome Forecast
Issued by NWS Columbia, SC

Home | Current Version | Previous Version | Text Only | Print | Product List | Glossary On
Versions: 1 2 3 4 5 6 7 8 9 10 11 12 13 14 15 16 17 18 19 20 21 22 23 24 25 26 27 28 29 30 31 32 33 34 35
211
FTUS42 KCAE 280007 AAA
TAFCAE
TAF AMD
KCAE 280007Z 2800/2824 17005KT P6SM SCT040
     FM280040 29010G18KT P6SM SCT025 BKN040
     FM280130 29010G18KT 3SM TSRA BKN025CB
     FM280230 VRB04KT P6SM SCT020
     FM280900 VRB03KT 4SM BR SCT010
     FM281400 22007KT P6SM SCT035=

USA.gov is the U.S. government's official web portal to all federal, state and local government web resources and services.